sensor_id;sensor_type;location;lat;lon;timestamp;P1;durP1;ratioP1;P2;durP2;ratioP2
5569;SDS011;2808;51.240;6.794;2023-04-24T00:01:53;2.73;;;1.20;;
5569;SDS011;2808;51.240;6.794;2023-04-24T00:04:21;3.40;;;1.40;;
5569;SDS011;2808;51.240;6.794;2023-04-24T00:06:51;3.00;;;1.40;;
5569;SDS011;2808;51.240;6.794;2023-04-24T00:09:22;5.10;;;1.40;;
5569;SDS011;2808;51.240;6.794;2023-04-24T00:11:51;3.03;;;1.37;;
5569;SDS011;2808;51.240;6.794;2023-04-24T00:14:24;8.80;;;1.60;;
5569;SDS011;2808;51.240;6.794;2023-04-24T00:16:52;12.63;;;1.77;;
5569;SDS011;2808;51.240;6.794;2023-04-24T00:19:25;3.60;;;1.50;;
5569;SDS011;2808;51.240;6.794;2023-04-24T00:22:01;3.27;;;1.43;;
5569;SDS011;2808;51.240;6.794;2023-04-24T00:24:29;5.73;;;1.67;;
5569;SDS011;2808;51.240;6.794;2023-04-24T00:26:58;3.27;;;1.50;;
5569;SDS011;2808;51.240;6.794;2023-04-24T00:29:26;3.77;;;1.60;;
5569;SDS011;2808;51.240;6.794;2023-04-24T00:31:54;5.60;;;1.63;;
5569;SDS011;2808;51.240;6.794;2023-04-24T00:34:21;4.37;;;1.80;;
5569;SDS011;2808;51.240;6.794;2023-04-24T00:36:49;10.37;;;1.83;;
5569;SDS011;2808;51.240;6.794;2023-04-24T00:39:17;7.10;;;2.13;;
5569;SDS011;2808;51.240;6.794;2023-04-24T00:41:44;2.60;;;1.30;;
5569;SDS011;2808;51.240;6.794;2023-04-24T00:44:17;3.60;;;1.60;;
5569;SDS011;2808;51.240;6.794;2023-04-24T00:46:45;4.00;;;1.40;;
5569;SDS011;2808;51.240;6.794;2023-04-24T00:49:16;5.53;;;1.50;;
5569;SDS011;2808;51.240;6.794;2023-04-24T00:51:45;3.07;;;1.47;;
5569;SDS011;2808;51.240;6.794;2023-04-24T00:54:14;4.20;;;1.70;;
5569;SDS011;2808;51.240;6.794;2023-04-24T00:56:44;6.10;;;1.70;;
5569;SDS011;2808;51.240;6.794;2023-04-24T00:59:13;5.13;;;1.63;;
5569;SDS011;2808;51.240;6.794;2023-04-24T01:01:43;3.23;;;1.83;;
5569;SDS011;2808;51.240;6.794;2023-04-24T01:04:12;3.10;;;1.70;;
5569;SDS011;2808;51.240;6.794;2023-04-24T01:06:42;4.00;;;1.70;;
5569;SDS011;2808;51.240;6.794;2023-04-24T01:09:14;6.03;;;2.00;;
5569;SDS011;2808;51.240;6.794;2023-04-24T01:11:45;3.00;;;1.60;;
5569;SDS011;2808;51.240;6.794;2023-04-24T01:14:15;4.67;;;1.93;;
5569;SDS011;2808;51.240;6.794;2023-04-24T01:16:44;4.20;;;2.23;;
5569;SDS011;2808;51.240;6.794;2023-04-24T01:19:12;5.47;;;2.30;;
5569;SDS011;2808;51.240;6.794;2023-04-24T01:21:43;8.47;;;2.60;;
5569;SDS011;2808;51.240;6.794;2023-04-24T01:24:15;7.27;;;2.63;;
5569;SDS011;2808;51.240;6.794;2023-04-24T01:26:59;5.63;;;3.00;;
5569;SDS011;2808;51.240;6.794;2023-04-24T01:29:32;9.70;;;3.30;;
5569;SDS011;2808;51.240;6.794;2023-04-24T01:32:02;6.30;;;3.20;;
5569;SDS011;2808;51.240;6.794;2023-04-24T01:34:31;8.17;;;3.63;;
5569;SDS011;2808;51.240;6.794;2023-04-24T01:36:59;6.67;;;3.50;;
5569;SDS011;2808;51.240;6.794;2023-04-24T01:39:31;10.20;;;4.30;;
5569;SDS011;2808;51.240;6.794;2023-04-24T01:41:59;11.20;;;4.37;;
5569;SDS011;2808;51.240;6.794;2023-04-24T01:44:27;11.07;;;4.43;;
5569;SDS011;2808;51.240;6.794;2023-04-24T01:46:55;10.63;;;4.83;;
5569;SDS011;2808;51.240;6.794;2023-04-24T01:49:22;6.83;;;4.33;;
5569;SDS011;2808;51.240;6.794;2023-04-24T01:51:50;12.87;;;5.20;;
5569;SDS011;2808;51.240;6.794;2023-04-24T01:54:17;12.37;;;5.07;;
5569;SDS011;2808;51.240;6.794;2023-04-24T01:56:47;14.77;;;5.63;;
5569;SDS011;2808;51.240;6.794;2023-04-24T01:59:14;9.73;;;4.90;;
5569;SDS011;2808;51.240;6.794;2023-04-24T02:01:44;12.03;;;5.07;;
5569;SDS011;2808;51.240;6.794;2023-04-24T02:04:12;9.57;;;5.73;;
5569;SDS011;2808;51.240;6.794;2023-04-24T02:06:43;13.07;;;6.07;;
5569;SDS011;2808;51.240;6.794;2023-04-24T02:09:10;15.33;;;5.90;;
5569;SDS011;2808;51.240;6.794;2023-04-24T02:11:38;9.03;;;5.70;;
5569;SDS011;2808;51.240;6.794;2023-04-24T02:14:07;15.60;;;6.47;;
5569;SDS011;2808;51.240;6.794;2023-04-24T02:16:34;12.00;;;6.17;;
5569;SDS011;2808;51.240;6.794;2023-04-24T02:19:02;12.40;;;5.87;;
5569;SDS011;2808;51.240;6.794;2023-04-24T02:21:32;15.10;;;6.93;;
5569;SDS011;2808;51.240;6.794;2023-04-24T02:24:09;12.40;;;6.80;;
5569;SDS011;2808;51.240;6.794;2023-04-24T02:26:38;11.93;;;5.40;;
5569;SDS011;2808;51.240;6.794;2023-04-24T02:29:10;13.47;;;6.10;;
5569;SDS011;2808;51.240;6.794;2023-04-24T02:31:43;11.87;;;6.27;;
5569;SDS011;2808;51.240;6.794;2023-04-24T02:34:10;11.70;;;6.03;;
5569;SDS011;2808;51.240;6.794;2023-04-24T02:36:43;14.83;;;7.07;;
5569;SDS011;2808;51.240;6.794;2023-04-24T02:39:14;17.80;;;6.80;;
5569;SDS011;2808;51.240;6.794;2023-04-24T02:41:42;14.07;;;6.80;;
5569;SDS011;2808;51.240;6.794;2023-04-24T02:44:12;17.83;;;6.53;;
5569;SDS011;2808;51.240;6.794;2023-04-24T02:46:42;16.97;;;7.70;;
5569;SDS011;2808;51.240;6.794;2023-04-24T02:49:10;16.07;;;6.30;;
5569;SDS011;2808;51.240;6.794;2023-04-24T02:51:37;15.77;;;7.00;;
5569;SDS011;2808;51.240;6.794;2023-04-24T02:54:06;18.90;;;7.70;;
5569;SDS011;2808;51.240;6.794;2023-04-24T02:56:40;12.97;;;6.70;;
5569;SDS011;2808;51.240;6.794;2023-04-24T02:59:08;12.87;;;7.23;;
5569;SDS011;2808;51.240;6.794;2023-04-24T03:01:37;15.87;;;7.13;;
5569;SDS011;2808;51.240;6.794;2023-04-24T03:04:04;15.73;;;7.53;;
5569;SDS011;2808;51.240;6.794;2023-04-24T03:06:32;12.83;;;7.60;;
5569;SDS011;2808;51.240;6.794;2023-04-24T03:09:00;17.07;;;8.13;;
5569;SDS011;2808;51.240;6.794;2023-04-24T03:11:28;19.20;;;8.70;;
5569;SDS011;2808;51.240;6.794;2023-04-24T03:13:55;14.53;;;7.50;;
5569;SDS011;2808;51.240;6.794;2023-04-24T03:16:26;14.23;;;7.90;;
5569;SDS011;2808;51.240;6.794;2023-04-24T03:18:54;18.83;;;8.37;;
5569;SDS011;2808;51.240;6.794;2023-04-24T03:21:22;15.50;;;7.47;;
5569;SDS011;2808;51.240;6.794;2023-04-24T03:23:52;16.30;;;7.57;;
5569;SDS011;2808;51.240;6.794;2023-04-24T03:26:20;21.80;;;7.60;;
5569;SDS011;2808;51.240;6.794;2023-04-24T03:28:51;14.53;;;6.83;;
5569;SDS011;2808;51.240;6.794;2023-04-24T03:31:29;14.00;;;7.10;;
5569;SDS011;2808;51.240;6.794;2023-04-24T03:33:59;14.63;;;6.80;;
5569;SDS011;2808;51.240;6.794;2023-04-24T03:36:27;12.70;;;6.60;;
5569;SDS011;2808;51.240;6.794;2023-04-24T03:38:57;15.60;;;7.33;;
5569;SDS011;2808;51.240;6.794;2023-04-24T03:41:25;13.90;;;6.80;;
5569;SDS011;2808;51.240;6.794;2023-04-24T03:43:52;22.07;;;7.47;;
5569;SDS011;2808;51.240;6.794;2023-04-24T03:46:22;15.33;;;6.60;;
5569;SDS011;2808;51.240;6.794;2023-04-24T03:48:51;20.17;;;7.40;;
5569;SDS011;2808;51.240;6.794;2023-04-24T03:51:18;17.17;;;6.80;;
5569;SDS011;2808;51.240;6.794;2023-04-24T03:53:49;16.37;;;7.50;;
5569;SDS011;2808;51.240;6.794;2023-04-24T03:56:16;15.73;;;7.67;;
5569;SDS011;2808;51.240;6.794;2023-04-24T03:58:44;16.33;;;6.53;;
5569;SDS011;2808;51.240;6.794;2023-04-24T04:01:12;17.00;;;7.20;;
5569;SDS011;2808;51.240;6.794;2023-04-24T04:03:57;13.80;;;6.50;;
5569;SDS011;2808;51.240;6.794;2023-04-24T04:06:37;15.93;;;7.10;;
5569;SDS011;2808;51.240;6.794;2023-04-24T04:09:05;17.43;;;7.23;;
5569;SDS011;2808;51.240;6.794;2023-04-24T04:11:33;27.17;;;8.87;;
5569;SDS011;2808;51.240;6.794;2023-04-24T04:14:03;20.27;;;8.73;;
5569;SDS011;2808;51.240;6.794;2023-04-24T04:16:32;19.73;;;9.43;;
5569;SDS011;2808;51.240;6.794;2023-04-24T04:19:02;17.60;;;9.53;;
5569;SDS011;2808;51.240;6.794;2023-04-24T04:21:35;17.67;;;8.20;;
5569;SDS011;2808;51.240;6.794;2023-04-24T04:24:23;14.03;;;7.20;;
5569;SDS011;2808;51.240;6.794;2023-04-24T04:27:03;13.37;;;7.47;;
5569;SDS011;2808;51.240;6.794;2023-04-24T04:29:36;17.20;;;7.40;;
5569;SDS011;2808;51.240;6.794;2023-04-24T04:32:05;14.00;;;6.87;;
5569;SDS011;2808;51.240;6.794;2023-04-24T04:34:34;11.27;;;6.53;;
5569;SDS011;2808;51.240;6.794;2023-04-24T04:37:02;14.70;;;6.87;;
5569;SDS011;2808;51.240;6.794;2023-04-24T04:39:31;11.20;;;6.47;;
5569;SDS011;2808;51.240;6.794;2023-04-24T04:41:59;11.57;;;6.43;;
5569;SDS011;2808;51.240;6.794;2023-04-24T04:44:29;15.50;;;7.40;;
5569;SDS011;2808;51.240;6.794;2023-04-24T04:46:59;12.50;;;6.33;;
5569;SDS011;2808;51.240;6.794;2023-04-24T04:49:30;18.73;;;7.30;;
5569;SDS011;2808;51.240;6.794;2023-04-24T04:52:00;11.53;;;6.50;;
5569;SDS011;2808;51.240;6.794;2023-04-24T04:54:28;21.13;;;6.50;;
5569;SDS011;2808;51.240;6.794;2023-04-24T04:56:56;14.83;;;6.97;;
5569;SDS011;2808;51.240;6.794;2023-04-24T04:59:29;14.00;;;6.80;;
5569;SDS011;2808;51.240;6.794;2023-04-24T05:01:56;12.23;;;7.50;;
5569;SDS011;2808;51.240;6.794;2023-04-24T05:04:29;15.13;;;7.70;;
5569;SDS011;2808;51.240;6.794;2023-04-24T05:06:58;11.17;;;6.93;;
5569;SDS011;2808;51.240;6.794;2023-04-24T05:09:28;17.30;;;8.13;;
5569;SDS011;2808;51.240;6.794;2023-04-24T05:11:55;14.83;;;7.50;;
5569;SDS011;2808;51.240;6.794;2023-04-24T05:14:23;14.90;;;7.70;;
5569;SDS011;2808;51.240;6.794;2023-04-24T05:16:50;14.57;;;7.40;;
5569;SDS011;2808;51.240;6.794;2023-04-24T05:19:18;14.77;;;7.20;;
5569;SDS011;2808;51.240;6.794;2023-04-24T05:21:46;10.90;;;6.67;;
5569;SDS011;2808;51.240;6.794;2023-04-24T05:24:14;17.77;;;7.27;;
5569;SDS011;2808;51.240;6.794;2023-04-24T05:26:47;11.57;;;6.97;;
5569;SDS011;2808;51.240;6.794;2023-04-24T05:29:14;10.07;;;6.13;;
5569;SDS011;2808;51.240;6.794;2023-04-24T05:31:44;10.80;;;6.23;;
5569;SDS011;2808;51.240;6.794;2023-04-24T05:34:14;12.23;;;6.80;;
5569;SDS011;2808;51.240;6.794;2023-04-24T05:36:42;16.47;;;7.20;;
5569;SDS011;2808;51.240;6.794;2023-04-24T05:39:09;12.47;;;5.87;;
5569;SDS011;2808;51.240;6.794;2023-04-24T05:41:42;9.47;;;6.70;;
5569;SDS011;2808;51.240;6.794;2023-04-24T05:44:11;11.87;;;5.90;;
5569;SDS011;2808;51.240;6.794;2023-04-24T05:46:38;14.40;;;6.13;;
5569;SDS011;2808;51.240;6.794;2023-04-24T05:49:06;12.00;;;6.47;;
5569;SDS011;2808;51.240;6.794;2023-04-24T05:51:33;17.93;;;6.00;;
5569;SDS011;2808;51.240;6.794;2023-04-24T05:54:01;12.23;;;6.53;;
5569;SDS011;2808;51.240;6.794;2023-04-24T05:56:30;9.47;;;5.30;;
5569;SDS011;2808;51.240;6.794;2023-04-24T05:59:00;10.50;;;5.83;;
5569;SDS011;2808;51.240;6.794;2023-04-24T06:01:28;10.50;;;5.50;;
5569;SDS011;2808;51.240;6.794;2023-04-24T06:03:56;12.30;;;6.80;;
5569;SDS011;2808;51.240;6.794;2023-04-24T06:06:24;8.70;;;5.80;;
5569;SDS011;2808;51.240;6.794;2023-04-24T06:08:52;10.17;;;5.80;;
5569;SDS011;2808;51.240;6.794;2023-04-24T06:11:19;10.40;;;6.13;;
5569;SDS011;2808;51.240;6.794;2023-04-24T06:13:49;9.03;;;5.27;;
5569;SDS011;2808;51.240;6.794;2023-04-24T06:16:17;12.70;;;6.10;;
5569;SDS011;2808;51.240;6.794;2023-04-24T06:18:44;12.53;;;6.17;;
5569;SDS011;2808;51.240;6.794;2023-04-24T06:21:12;9.83;;;6.13;;
5569;SDS011;2808;51.240;6.794;2023-04-24T06:23:40;8.50;;;5.10;;
5569;SDS011;2808;51.240;6.794;2023-04-24T06:26:08;10.53;;;5.00;;
5569;SDS011;2808;51.240;6.794;2023-04-24T06:28:35;9.97;;;5.50;;
5569;SDS011;2808;51.240;6.794;2023-04-24T06:31:04;10.33;;;4.90;;
5569;SDS011;2808;51.240;6.794;2023-04-24T06:33:32;13.00;;;5.40;;
5569;SDS011;2808;51.240;6.794;2023-04-24T06:36:00;10.10;;;4.43;;
5569;SDS011;2808;51.240;6.794;2023-04-24T06:38:29;12.73;;;5.10;;
5569;SDS011;2808;51.240;6.794;2023-04-24T06:40:59;7.23;;;4.23;;
5569;SDS011;2808;51.240;6.794;2023-04-24T06:43:26;10.17;;;5.27;;
5569;SDS011;2808;51.240;6.794;2023-04-24T06:45:55;6.40;;;4.20;;
5569;SDS011;2808;51.240;6.794;2023-04-24T06:48:25;11.33;;;4.67;;
5569;SDS011;2808;51.240;6.794;2023-04-24T06:50:54;8.80;;;4.57;;
5569;SDS011;2808;51.240;6.794;2023-04-24T06:53:22;11.40;;;4.57;;
5569;SDS011;2808;51.240;6.794;2023-04-24T06:55:55;7.30;;;3.87;;
5569;SDS011;2808;51.240;6.794;2023-04-24T06:58:23;9.80;;;4.37;;
5569;SDS011;2808;51.240;6.794;2023-04-24T07:00:52;7.70;;;4.23;;
5569;SDS011;2808;51.240;6.794;2023-04-24T07:03:19;11.30;;;3.80;;
5569;SDS011;2808;51.240;6.794;2023-04-24T07:05:52;8.07;;;3.90;;
5569;SDS011;2808;51.240;6.794;2023-04-24T07:08:20;6.60;;;3.73;;
5569;SDS011;2808;51.240;6.794;2023-04-24T07:10:48;6.50;;;4.10;;
5569;SDS011;2808;51.240;6.794;2023-04-24T07:13:18;6.50;;;4.20;;
5569;SDS011;2808;51.240;6.794;2023-04-24T07:15:46;9.27;;;3.93;;
5569;SDS011;2808;51.240;6.794;2023-04-24T07:18:15;8.00;;;3.60;;
5569;SDS011;2808;51.240;6.794;2023-04-24T07:20:47;10.40;;;4.57;;
5569;SDS011;2808;51.240;6.794;2023-04-24T07:23:19;6.17;;;3.10;;
5569;SDS011;2808;51.240;6.794;2023-04-24T07:25:47;6.83;;;3.53;;
5569;SDS011;2808;51.240;6.794;2023-04-24T07:28:16;9.67;;;3.23;;
5569;SDS011;2808;51.240;6.794;2023-04-24T07:30:45;6.77;;;2.97;;
5569;SDS011;2808;51.240;6.794;2023-04-24T07:33:15;5.07;;;2.90;;
5569;SDS011;2808;51.240;6.794;2023-04-24T07:35:54;9.50;;;2.27;;
5569;SDS011;2808;51.240;6.794;2023-04-24T07:38:24;6.60;;;2.23;;
5569;SDS011;2808;51.240;6.794;2023-04-24T07:40:51;5.27;;;1.63;;
5569;SDS011;2808;51.240;6.794;2023-04-24T07:43:23;4.93;;;1.70;;
5569;SDS011;2808;51.240;6.794;2023-04-24T07:45:55;3.20;;;1.33;;
5569;SDS011;2808;51.240;6.794;2023-04-24T07:48:30;5.00;;;1.83;;
5569;SDS011;2808;51.240;6.794;2023-04-24T07:51:30;3.57;;;1.23;;
5569;SDS011;2808;51.240;6.794;2023-04-24T07:54:12;2.90;;;1.10;;
5569;SDS011;2808;51.240;6.794;2023-04-24T07:56:40;3.50;;;1.40;;
5569;SDS011;2808;51.240;6.794;2023-04-24T07:59:14;3.67;;;1.30;;
5569;SDS011;2808;51.240;6.794;2023-04-24T08:01:41;3.77;;;1.30;;
5569;SDS011;2808;51.240;6.794;2023-04-24T08:04:09;2.87;;;0.90;;
5569;SDS011;2808;51.240;6.794;2023-04-24T08:06:43;2.53;;;1.10;;
5569;SDS011;2808;51.240;6.794;2023-04-24T08:09:11;2.23;;;1.00;;
5569;SDS011;2808;51.240;6.794;2023-04-24T08:11:41;3.70;;;1.13;;
5569;SDS011;2808;51.240;6.794;2023-04-24T08:14:08;2.40;;;1.07;;
5569;SDS011;2808;51.240;6.794;2023-04-24T08:16:37;5.13;;;1.20;;
5569;SDS011;2808;51.240;6.794;2023-04-24T08:19:05;6.97;;;1.67;;
5569;SDS011;2808;51.240;6.794;2023-04-24T08:21:32;10.87;;;1.90;;
5569;SDS011;2808;51.240;6.794;2023-04-24T08:24:01;4.20;;;1.87;;
5569;SDS011;2808;51.240;6.794;2023-04-24T08:26:30;3.73;;;1.70;;
5569;SDS011;2808;51.240;6.794;2023-04-24T08:28:59;8.00;;;1.47;;
5569;SDS011;2808;51.240;6.794;2023-04-24T08:31:29;4.60;;;1.73;;
5569;SDS011;2808;51.240;6.794;2023-04-24T08:33:56;3.77;;;1.73;;
5569;SDS011;2808;51.240;6.794;2023-04-24T08:36:26;5.03;;;1.50;;
5569;SDS011;2808;51.240;6.794;2023-04-24T08:39:11;4.70;;;1.77;;
5569;SDS011;2808;51.240;6.794;2023-04-24T08:41:49;4.33;;;1.90;;
5569;SDS011;2808;51.240;6.794;2023-04-24T08:44:19;3.93;;;1.90;;
5569;SDS011;2808;51.240;6.794;2023-04-24T08:46:47;4.00;;;1.67;;
5569;SDS011;2808;51.240;6.794;2023-04-24T08:49:18;3.97;;;1.97;;
5569;SDS011;2808;51.240;6.794;2023-04-24T08:51:46;4.00;;;1.63;;
5569;SDS011;2808;51.240;6.794;2023-04-24T08:54:16;4.00;;;1.70;;
5569;SDS011;2808;51.240;6.794;2023-04-24T08:56:47;4.80;;;2.40;;
5569;SDS011;2808;51.240;6.794;2023-04-24T08:59:34;5.10;;;2.57;;
5569;SDS011;2808;51.240;6.794;2023-04-24T09:02:02;6.20;;;3.10;;
5569;SDS011;2808;51.240;6.794;2023-04-24T09:04:30;11.13;;;3.27;;
5569;SDS011;2808;51.240;6.794;2023-04-24T09:07:00;8.73;;;2.93;;
5569;SDS011;2808;51.240;6.794;2023-04-24T09:09:31;5.23;;;2.53;;
5569;SDS011;2808;51.240;6.794;2023-04-24T09:12:00;6.43;;;2.80;;
5569;SDS011;2808;51.240;6.794;2023-04-24T09:14:28;4.30;;;2.20;;
5569;SDS011;2808;51.240;6.794;2023-04-24T09:16:57;5.83;;;2.30;;
5569;SDS011;2808;51.240;6.794;2023-04-24T09:19:24;6.53;;;2.87;;
5569;SDS011;2808;51.240;6.794;2023-04-24T09:21:52;5.23;;;2.70;;
5569;SDS011;2808;51.240;6.794;2023-04-24T09:24:21;5.33;;;2.80;;
5569;SDS011;2808;51.240;6.794;2023-04-24T09:26:57;8.90;;;3.20;;
5569;SDS011;2808;51.240;6.794;2023-04-24T09:29:26;12.40;;;3.70;;
5569;SDS011;2808;51.240;6.794;2023-04-24T09:31:55;7.60;;;4.10;;
5569;SDS011;2808;51.240;6.794;2023-04-24T09:34:25;5.33;;;3.57;;
5569;SDS011;2808;51.240;6.794;2023-04-24T09:36:53;9.37;;;4.20;;
5569;SDS011;2808;51.240;6.794;2023-04-24T09:39:21;5.80;;;3.80;;
5569;SDS011;2808;51.240;6.794;2023-04-24T09:41:51;8.20;;;3.97;;
5569;SDS011;2808;51.240;6.794;2023-04-24T09:44:21;6.83;;;3.70;;
5569;SDS011;2808;51.240;6.794;2023-04-24T09:46:51;9.80;;;3.80;;
5569;SDS011;2808;51.240;6.794;2023-04-24T09:49:21;9.83;;;3.47;;
5569;SDS011;2808;51.240;6.794;2023-04-24T09:51:50;10.33;;;4.73;;
5569;SDS011;2808;51.240;6.794;2023-04-24T09:54:19;10.43;;;4.30;;
5569;SDS011;2808;51.240;6.794;2023-04-24T09:56:50;11.20;;;3.93;;
5569;SDS011;2808;51.240;6.794;2023-04-24T09:59:51;14.43;;;5.20;;
5569;SDS011;2808;51.240;6.794;2023-04-24T10:02:30;12.63;;;4.70;;
5569;SDS011;2808;51.240;6.794;2023-04-24T10:05:00;13.87;;;5.70;;
5569;SDS011;2808;51.240;6.794;2023-04-24T10:07:28;13.00;;;4.70;;
5569;SDS011;2808;51.240;6.794;2023-04-24T10:09:59;10.30;;;5.70;;
5569;SDS011;2808;51.240;6.794;2023-04-24T10:12:30;13.17;;;5.33;;
5569;SDS011;2808;51.240;6.794;2023-04-24T10:14:58;14.70;;;5.40;;
5569;SDS011;2808;51.240;6.794;2023-04-24T10:17:30;10.73;;;5.20;;
5569;SDS011;2808;51.240;6.794;2023-04-24T10:19:58;16.57;;;5.13;;
5569;SDS011;2808;51.240;6.794;2023-04-24T10:22:28;13.60;;;5.40;;
5569;SDS011;2808;51.240;6.794;2023-04-24T10:24:56;14.70;;;5.70;;
5569;SDS011;2808;51.240;6.794;2023-04-24T10:27:26;13.77;;;5.70;;
5569;SDS011;2808;51.240;6.794;2023-04-24T10:29:55;13.50;;;5.40;;
5569;SDS011;2808;51.240;6.794;2023-04-24T10:32:26;13.67;;;5.77;;
5569;SDS011;2808;51.240;6.794;2023-04-24T10:34:54;18.23;;;6.43;;
5569;SDS011;2808;51.240;6.794;2023-04-24T10:37:21;14.67;;;5.50;;
5569;SDS011;2808;51.240;6.794;2023-04-24T10:39:50;13.00;;;5.77;;
5569;SDS011;2808;51.240;6.794;2023-04-24T10:42:19;16.40;;;5.70;;
5569;SDS011;2808;51.240;6.794;2023-04-24T10:44:48;13.47;;;5.70;;
5569;SDS011;2808;51.240;6.794;2023-04-24T10:47:17;13.53;;;5.60;;
5569;SDS011;2808;51.240;6.794;2023-04-24T10:49:45;17.77;;;5.27;;
5569;SDS011;2808;51.240;6.794;2023-04-24T10:52:16;16.13;;;5.90;;
5569;SDS011;2808;51.240;6.794;2023-04-24T10:54:44;19.53;;;6.40;;
5569;SDS011;2808;51.240;6.794;2023-04-24T10:57:27;17.10;;;6.50;;
5569;SDS011;2808;51.240;6.794;2023-04-24T11:00:15;19.27;;;5.80;;
5569;SDS011;2808;51.240;6.794;2023-04-24T11:02:47;15.63;;;5.53;;
5569;SDS011;2808;51.240;6.794;2023-04-24T11:05:17;20.30;;;6.40;;
5569;SDS011;2808;51.240;6.794;2023-04-24T11:10:43;12.63;;;4.57;;
5569;SDS011;2808;51.240;6.794;2023-04-24T11:13:14;13.00;;;4.10;;
5569;SDS011;2808;51.240;6.794;2023-04-24T11:15:42;21.43;;;5.10;;
5569;SDS011;2808;51.240;6.794;2023-04-24T11:18:15;13.67;;;4.80;;
5569;SDS011;2808;51.240;6.794;2023-04-24T11:20:43;20.47;;;4.17;;
5569;SDS011;2808;51.240;6.794;2023-04-24T11:23:11;11.10;;;3.80;;
5569;SDS011;2808;51.240;6.794;2023-04-24T11:25:46;7.63;;;3.37;;
5569;SDS011;2808;51.240;6.794;2023-04-24T11:28:45;16.13;;;3.43;;
5569;SDS011;2808;51.240;6.794;2023-04-24T11:31:33;16.00;;;3.77;;
5569;SDS011;2808;51.240;6.794;2023-04-24T11:34:08;15.30;;;4.17;;
5569;SDS011;2808;51.240;6.794;2023-04-24T11:36:37;13.63;;;3.40;;
5569;SDS011;2808;51.240;6.794;2023-04-24T11:39:05;14.70;;;3.80;;
5569;SDS011;2808;51.240;6.794;2023-04-24T11:41:36;14.43;;;3.53;;
5569;SDS011;2808;51.240;6.794;2023-04-24T11:44:05;17.60;;;3.43;;
5569;SDS011;2808;51.240;6.794;2023-04-24T11:46:34;12.93;;;3.77;;
5569;SDS011;2808;51.240;6.794;2023-04-24T11:49:06;17.67;;;4.20;;
5569;SDS011;2808;51.240;6.794;2023-04-24T11:51:35;12.47;;;3.73;;
5569;SDS011;2808;51.240;6.794;2023-04-24T11:54:07;17.07;;;3.87;;
5569;SDS011;2808;51.240;6.794;2023-04-24T11:56:35;19.47;;;4.10;;
5569;SDS011;2808;51.240;6.794;2023-04-24T11:59:03;23.77;;;4.90;;
5569;SDS011;2808;51.240;6.794;2023-04-24T12:01:42;15.57;;;4.80;;
5569;SDS011;2808;51.240;6.794;2023-04-24T12:04:12;13.50;;;4.60;;
5569;SDS011;2808;51.240;6.794;2023-04-24T12:09:25;10.17;;;4.13;;
5569;SDS011;2808;51.240;6.794;2023-04-24T12:11:52;11.07;;;3.00;;
5569;SDS011;2808;51.240;6.794;2023-04-24T12:14:22;14.77;;;3.40;;
5569;SDS011;2808;51.240;6.794;2023-04-24T12:16:50;16.43;;;3.67;;
5569;SDS011;2808;51.240;6.794;2023-04-24T12:25:15;14.70;;;3.27;;
5569;SDS011;2808;51.240;6.794;2023-04-24T12:27:43;13.90;;;2.93;;
5569;SDS011;2808;51.240;6.794;2023-04-24T12:30:14;10.60;;;3.40;;
5569;SDS011;2808;51.240;6.794;2023-04-24T12:32:45;13.60;;;3.30;;
5569;SDS011;2808;51.240;6.794;2023-04-24T12:35:18;8.60;;;2.73;;
5569;SDS011;2808;51.240;6.794;2023-04-24T12:37:50;12.93;;;3.03;;
5569;SDS011;2808;51.240;6.794;2023-04-24T12:40:21;11.23;;;2.17;;
5569;SDS011;2808;51.240;6.794;2023-04-24T12:42:53;6.53;;;2.30;;
5569;SDS011;2808;51.240;6.794;2023-04-24T12:45:24;10.60;;;2.23;;
5569;SDS011;2808;51.240;6.794;2023-04-24T12:47:53;7.17;;;1.90;;
5569;SDS011;2808;51.240;6.794;2023-04-24T12:50:22;9.57;;;2.47;;
5569;SDS011;2808;51.240;6.794;2023-04-24T12:52:53;5.30;;;1.90;;
5569;SDS011;2808;51.240;6.794;2023-04-24T12:55:30;6.10;;;2.07;;
5569;SDS011;2808;51.240;6.794;2023-04-24T12:57:58;14.83;;;2.10;;
5569;SDS011;2808;51.240;6.794;2023-04-24T13:00:31;4.60;;;1.60;;
5569;SDS011;2808;51.240;6.794;2023-04-24T13:02:59;9.73;;;1.80;;
5569;SDS011;2808;51.240;6.794;2023-04-24T13:05:31;3.90;;;1.90;;
5569;SDS011;2808;51.240;6.794;2023-04-24T13:08:04;9.53;;;1.73;;
5569;SDS011;2808;51.240;6.794;2023-04-24T13:10:31;9.33;;;1.67;;
5569;SDS011;2808;51.240;6.794;2023-04-24T13:13:01;5.00;;;1.63;;
5569;SDS011;2808;51.240;6.794;2023-04-24T13:15:29;5.50;;;1.70;;
5569;SDS011;2808;51.240;6.794;2023-04-24T13:17:56;4.10;;;1.43;;
5569;SDS011;2808;51.240;6.794;2023-04-24T13:20:24;6.63;;;2.37;;
5569;SDS011;2808;51.240;6.794;2023-04-24T13:22:56;6.70;;;2.10;;
5569;SDS011;2808;51.240;6.794;2023-04-24T13:25:25;7.50;;;1.40;;
5569;SDS011;2808;51.240;6.794;2023-04-24T13:27:53;7.30;;;1.60;;
5569;SDS011;2808;51.240;6.794;2023-04-24T13:30:22;4.63;;;1.50;;
5569;SDS011;2808;51.240;6.794;2023-04-24T13:32:50;7.80;;;2.77;;
5569;SDS011;2808;51.240;6.794;2023-04-24T13:35:20;5.17;;;1.40;;
5569;SDS011;2808;51.240;6.794;2023-04-24T13:37:51;3.63;;;1.37;;
5569;SDS011;2808;51.240;6.794;2023-04-24T13:40:22;5.87;;;1.50;;
5569;SDS011;2808;51.240;6.794;2023-04-24T13:42:50;6.30;;;1.40;;
5569;SDS011;2808;51.240;6.794;2023-04-24T13:45:17;4.70;;;1.50;;
5569;SDS011;2808;51.240;6.794;2023-04-24T13:47:45;6.53;;;1.53;;
5569;SDS011;2808;51.240;6.794;2023-04-24T13:50:13;5.53;;;1.50;;
5569;SDS011;2808;51.240;6.794;2023-04-24T13:52:40;10.53;;;2.20;;
5569;SDS011;2808;51.240;6.794;2023-04-24T13:55:08;7.13;;;1.70;;
5569;SDS011;2808;51.240;6.794;2023-04-24T13:57:40;12.10;;;2.47;;
5569;SDS011;2808;51.240;6.794;2023-04-24T14:00:08;14.10;;;1.90;;
5569;SDS011;2808;51.240;6.794;2023-04-24T14:02:36;5.23;;;1.60;;
5569;SDS011;2808;51.240;6.794;2023-04-24T14:05:04;6.50;;;2.50;;
5569;SDS011;2808;51.240;6.794;2023-04-24T14:07:32;6.10;;;2.00;;
5569;SDS011;2808;51.240;6.794;2023-04-24T14:09:59;5.13;;;1.60;;
5569;SDS011;2808;51.240;6.794;2023-04-24T14:12:27;7.67;;;1.83;;
5569;SDS011;2808;51.240;6.794;2023-04-24T14:14:56;6.00;;;1.53;;
5569;SDS011;2808;51.240;6.794;2023-04-24T14:17:23;10.53;;;1.70;;
5569;SDS011;2808;51.240;6.794;2023-04-24T14:19:51;7.40;;;1.60;;
5569;SDS011;2808;51.240;6.794;2023-04-24T14:22:21;6.20;;;1.70;;
5569;SDS011;2808;51.240;6.794;2023-04-24T14:24:48;3.43;;;1.50;;
5569;SDS011;2808;51.240;6.794;2023-04-24T14:27:16;6.63;;;1.80;;
5569;SDS011;2808;51.240;6.794;2023-04-24T14:29:47;6.23;;;1.50;;
5569;SDS011;2808;51.240;6.794;2023-04-24T14:32:18;4.70;;;1.27;;
5569;SDS011;2808;51.240;6.794;2023-04-24T14:34:46;5.60;;;1.73;;
5569;SDS011;2808;51.240;6.794;2023-04-24T14:37:13;7.80;;;2.00;;
5569;SDS011;2808;51.240;6.794;2023-04-24T14:39:49;5.40;;;1.57;;
5569;SDS011;2808;51.240;6.794;2023-04-24T14:42:22;9.20;;;1.80;;
5569;SDS011;2808;51.240;6.794;2023-04-24T14:44:51;4.33;;;1.60;;
5569;SDS011;2808;51.240;6.794;2023-04-24T14:47:22;8.20;;;1.50;;
5569;SDS011;2808;51.240;6.794;2023-04-24T14:49:54;8.80;;;1.67;;
5569;SDS011;2808;51.240;6.794;2023-04-24T14:52:22;5.20;;;1.50;;
5569;SDS011;2808;51.240;6.794;2023-04-24T14:54:50;3.50;;;1.47;;
5569;SDS011;2808;51.240;6.794;2023-04-24T14:57:17;7.23;;;1.40;;
5569;SDS011;2808;51.240;6.794;2023-04-24T14:59:45;7.07;;;1.83;;
5569;SDS011;2808;51.240;6.794;2023-04-24T15:02:13;5.90;;;1.97;;
5569;SDS011;2808;51.240;6.794;2023-04-24T15:04:44;4.60;;;1.60;;
5569;SDS011;2808;51.240;6.794;2023-04-24T15:07:11;13.50;;;1.60;;
5569;SDS011;2808;51.240;6.794;2023-04-24T15:09:38;7.97;;;2.23;;
5569;SDS011;2808;51.240;6.794;2023-04-24T15:12:09;3.13;;;1.77;;
5569;SDS011;2808;51.240;6.794;2023-04-24T15:14:37;5.03;;;1.97;;
5569;SDS011;2808;51.240;6.794;2023-04-24T15:17:04;3.80;;;1.40;;
5569;SDS011;2808;51.240;6.794;2023-04-24T15:19:32;7.53;;;1.50;;
5569;SDS011;2808;51.240;6.794;2023-04-24T15:22:01;5.47;;;1.80;;
5569;SDS011;2808;51.240;6.794;2023-04-24T15:24:31;4.63;;;1.60;;
5569;SDS011;2808;51.240;6.794;2023-04-24T15:26:59;4.90;;;1.70;;
5569;SDS011;2808;51.240;6.794;2023-04-24T15:29:28;8.30;;;2.40;;
5569;SDS011;2808;51.240;6.794;2023-04-24T15:31:56;6.77;;;1.63;;
5569;SDS011;2808;51.240;6.794;2023-04-24T15:34:24;4.40;;;1.60;;
5569;SDS011;2808;51.240;6.794;2023-04-24T15:36:51;4.63;;;1.50;;